Weather at Pelee Island Airport

Public forecast

Using degrees Celsius for public forecast. Weather courtesy of forecast.io.

Closest aviation weather report (METAR) to Pelee Island Airport

Closest report is Carl R Keller Field, 18.0 nm (33.4 km) SSW. Retrieved 2022/05/17 16:35 UTC (10 minutes ago):

KPCW 171635Z AUTO 33006KT 10SM CLR 15/07 A3003 RMK AO2

Closest aviation forecast (TAF) to Pelee Island Airport

Closest forecast is Windsor Airport, 32.2 nm (59.6 km) NNW. Retrieved 2022/05/17 12:42 UTC (4 hours ago):

TAF CYQG 171140Z 1712/1812 33008KT P6SM FEW100 FM171400 31012KT P6SM FEW040 BECMG 1723/1801 32005KT BECMG 1803/1805 04005KT FM181000 08005KT P6SM SKC RMK FCST BASED ON AUTO OBS NXT FCST BY 171800Z